sensor_id;sensor_type;location;lat;lon;timestamp;P1;durP1;ratioP1;P2;durP2;ratioP2
76786;SDS011;65739;51.482;5.702;2023-12-20T00:01:03;15.68;;;6.05;;
76786;SDS011;65739;51.482;5.702;2023-12-20T00:03:28;12.02;;;5.32;;
76786;SDS011;65739;51.482;5.702;2023-12-20T00:05:54;13.43;;;5.90;;
76786;SDS011;65739;51.482;5.702;2023-12-20T00:08:20;12.30;;;5.38;;
76786;SDS011;65739;51.482;5.702;2023-12-20T00:10:46;15.70;;;5.57;;
76786;SDS011;65739;51.482;5.702;2023-12-20T00:13:11;13.02;;;5.60;;
76786;SDS011;65739;51.482;5.702;2023-12-20T00:15:37;17.13;;;6.10;;
76786;SDS011;65739;51.482;5.702;2023-12-20T00:18:03;13.98;;;4.95;;
76786;SDS011;65739;51.482;5.702;2023-12-20T00:20:29;8.90;;;4.82;;
76786;SDS011;65739;51.482;5.702;2023-12-20T00:22:55;16.30;;;4.57;;
76786;SDS011;65739;51.482;5.702;2023-12-20T00:25:22;13.68;;;4.90;;
76786;SDS011;65739;51.482;5.702;2023-12-20T00:27:48;24.15;;;4.88;;
76786;SDS011;65739;51.482;5.702;2023-12-20T00:30:14;17.42;;;4.32;;
76786;SDS011;65739;51.482;5.702;2023-12-20T00:32:39;10.82;;;4.38;;
76786;SDS011;65739;51.482;5.702;2023-12-20T00:35:11;19.35;;;4.07;;
76786;SDS011;65739;51.482;5.702;2023-12-20T00:37:37;17.63;;;4.18;;
76786;SDS011;65739;51.482;5.702;2023-12-20T00:40:02;14.57;;;4.28;;
76786;SDS011;65739;51.482;5.702;2023-12-20T00:42:28;15.10;;;3.90;;
76786;SDS011;65739;51.482;5.702;2023-12-20T00:44:54;18.45;;;3.20;;
76786;SDS011;65739;51.482;5.702;2023-12-20T00:47:19;17.40;;;3.13;;
76786;SDS011;65739;51.482;5.702;2023-12-20T00:49:45;12.02;;;3.10;;
76786;SDS011;65739;51.482;5.702;2023-12-20T00:52:10;11.48;;;3.42;;
76786;SDS011;65739;51.482;5.702;2023-12-20T00:54:36;12.00;;;2.58;;
76786;SDS011;65739;51.482;5.702;2023-12-20T00:57:02;15.90;;;2.58;;
76786;SDS011;65739;51.482;5.702;2023-12-20T00:59:28;14.23;;;3.10;;
76786;SDS011;65739;51.482;5.702;2023-12-20T01:01:53;13.05;;;2.60;;
76786;SDS011;65739;51.482;5.702;2023-12-20T01:04:19;12.63;;;2.63;;
76786;SDS011;65739;51.482;5.702;2023-12-20T01:06:44;12.10;;;2.85;;
76786;SDS011;65739;51.482;5.702;2023-12-20T01:09:10;15.48;;;2.42;;
76786;SDS011;65739;51.482;5.702;2023-12-20T01:11:35;11.60;;;2.33;;
76786;SDS011;65739;51.482;5.702;2023-12-20T01:14:01;12.57;;;2.63;;
76786;SDS011;65739;51.482;5.702;2023-12-20T01:16:26;16.33;;;2.30;;
76786;SDS011;65739;51.482;5.702;2023-12-20T01:18:52;14.55;;;2.13;;
76786;SDS011;65739;51.482;5.702;2023-12-20T01:21:17;15.45;;;2.38;;
76786;SDS011;65739;51.482;5.702;2023-12-20T01:23:43;17.95;;;3.15;;
76786;SDS011;65739;51.482;5.702;2023-12-20T01:26:08;11.93;;;2.20;;
76786;SDS011;65739;51.482;5.702;2023-12-20T01:28:34;15.57;;;2.00;;
76786;SDS011;65739;51.482;5.702;2023-12-20T01:30:59;9.23;;;1.98;;
76786;SDS011;65739;51.482;5.702;2023-12-20T01:33:25;14.65;;;2.33;;
76786;SDS011;65739;51.482;5.702;2023-12-20T01:35:51;10.45;;;2.10;;
76786;SDS011;65739;51.482;5.702;2023-12-20T01:38:16;16.05;;;2.20;;
76786;SDS011;65739;51.482;5.702;2023-12-20T01:40:43;15.57;;;2.30;;
76786;SDS011;65739;51.482;5.702;2023-12-20T01:43:09;11.63;;;1.90;;
76786;SDS011;65739;51.482;5.702;2023-12-20T01:45:36;19.30;;;2.28;;
76786;SDS011;65739;51.482;5.702;2023-12-20T01:48:02;9.98;;;2.30;;
76786;SDS011;65739;51.482;5.702;2023-12-20T01:50:28;19.05;;;2.25;;
76786;SDS011;65739;51.482;5.702;2023-12-20T01:52:55;9.68;;;1.80;;
76786;SDS011;65739;51.482;5.702;2023-12-20T01:55:23;14.82;;;2.40;;
76786;SDS011;65739;51.482;5.702;2023-12-20T01:57:50;12.82;;;1.55;;
76786;SDS011;65739;51.482;5.702;2023-12-20T02:00:16;17.38;;;2.28;;
76786;SDS011;65739;51.482;5.702;2023-12-20T02:02:43;23.30;;;2.55;;
76786;SDS011;65739;51.482;5.702;2023-12-20T02:05:10;14.82;;;1.85;;
76786;SDS011;65739;51.482;5.702;2023-12-20T02:07:36;13.55;;;2.33;;
76786;SDS011;65739;51.482;5.702;2023-12-20T02:10:02;9.07;;;2.35;;
76786;SDS011;65739;51.482;5.702;2023-12-20T02:12:29;18.00;;;3.10;;
76786;SDS011;65739;51.482;5.702;2023-12-20T02:14:54;18.30;;;2.60;;
76786;SDS011;65739;51.482;5.702;2023-12-20T02:17:20;16.95;;;2.50;;
76786;SDS011;65739;51.482;5.702;2023-12-20T02:19:46;10.50;;;2.25;;
76786;SDS011;65739;51.482;5.702;2023-12-20T02:22:12;12.63;;;2.30;;
76786;SDS011;65739;51.482;5.702;2023-12-20T02:24:38;13.43;;;2.63;;
76786;SDS011;65739;51.482;5.702;2023-12-20T02:27:05;16.20;;;2.30;;
76786;SDS011;65739;51.482;5.702;2023-12-20T02:29:32;18.02;;;2.50;;
76786;SDS011;65739;51.482;5.702;2023-12-20T02:31:58;15.27;;;2.17;;
76786;SDS011;65739;51.482;5.702;2023-12-20T02:34:24;18.15;;;2.72;;
76786;SDS011;65739;51.482;5.702;2023-12-20T02:36:49;22.52;;;2.85;;
76786;SDS011;65739;51.482;5.702;2023-12-20T02:39:15;15.93;;;2.58;;
76786;SDS011;65739;51.482;5.702;2023-12-20T02:41:41;16.42;;;2.83;;
76786;SDS011;65739;51.482;5.702;2023-12-20T02:44:06;12.95;;;2.25;;
76786;SDS011;65739;51.482;5.702;2023-12-20T02:46:32;14.75;;;2.30;;
76786;SDS011;65739;51.482;5.702;2023-12-20T02:48:57;17.15;;;2.55;;
76786;SDS011;65739;51.482;5.702;2023-12-20T02:51:23;10.18;;;2.10;;
76786;SDS011;65739;51.482;5.702;2023-12-20T02:53:48;10.18;;;2.25;;
76786;SDS011;65739;51.482;5.702;2023-12-20T02:56:14;20.05;;;3.25;;
76786;SDS011;65739;51.482;5.702;2023-12-20T02:58:39;17.98;;;2.80;;
76786;SDS011;65739;51.482;5.702;2023-12-20T03:01:05;11.93;;;2.30;;
76786;SDS011;65739;51.482;5.702;2023-12-20T03:03:31;15.80;;;2.67;;
76786;SDS011;65739;51.482;5.702;2023-12-20T03:05:57;14.80;;;2.33;;
76786;SDS011;65739;51.482;5.702;2023-12-20T03:08:22;16.08;;;2.60;;
76786;SDS011;65739;51.482;5.702;2023-12-20T03:10:48;14.50;;;2.45;;
76786;SDS011;65739;51.482;5.702;2023-12-20T03:13:13;13.48;;;2.80;;
76786;SDS011;65739;51.482;5.702;2023-12-20T03:15:39;16.77;;;2.15;;
76786;SDS011;65739;51.482;5.702;2023-12-20T03:18:05;17.90;;;3.65;;
76786;SDS011;65739;51.482;5.702;2023-12-20T03:20:30;23.05;;;3.28;;
76786;SDS011;65739;51.482;5.702;2023-12-20T03:22:59;14.30;;;2.90;;
76786;SDS011;65739;51.482;5.702;2023-12-20T03:25:27;20.77;;;2.70;;
76786;SDS011;65739;51.482;5.702;2023-12-20T03:27:53;11.80;;;2.63;;
76786;SDS011;65739;51.482;5.702;2023-12-20T03:30:18;15.13;;;2.63;;
76786;SDS011;65739;51.482;5.702;2023-12-20T03:32:44;16.65;;;2.90;;
76786;SDS011;65739;51.482;5.702;2023-12-20T03:35:10;16.65;;;2.65;;
76786;SDS011;65739;51.482;5.702;2023-12-20T03:37:36;18.58;;;2.40;;
76786;SDS011;65739;51.482;5.702;2023-12-20T03:40:02;14.38;;;2.70;;
76786;SDS011;65739;51.482;5.702;2023-12-20T03:42:28;17.98;;;2.28;;
76786;SDS011;65739;51.482;5.702;2023-12-20T03:44:53;17.25;;;2.63;;
76786;SDS011;65739;51.482;5.702;2023-12-20T03:47:19;17.23;;;2.60;;
76786;SDS011;65739;51.482;5.702;2023-12-20T03:49:45;18.05;;;2.97;;
76786;SDS011;65739;51.482;5.702;2023-12-20T03:52:10;14.52;;;2.65;;
76786;SDS011;65739;51.482;5.702;2023-12-20T03:54:36;12.13;;;2.42;;
76786;SDS011;65739;51.482;5.702;2023-12-20T03:57:02;14.60;;;3.63;;
76786;SDS011;65739;51.482;5.702;2023-12-20T03:59:28;13.82;;;3.25;;
76786;SDS011;65739;51.482;5.702;2023-12-20T04:01:54;16.63;;;3.53;;
76786;SDS011;65739;51.482;5.702;2023-12-20T04:04:19;16.90;;;3.97;;
76786;SDS011;65739;51.482;5.702;2023-12-20T04:06:45;15.20;;;3.83;;
76786;SDS011;65739;51.482;5.702;2023-12-20T04:09:10;10.38;;;3.30;;
76786;SDS011;65739;51.482;5.702;2023-12-20T04:11:36;12.75;;;3.17;;
76786;SDS011;65739;51.482;5.702;2023-12-20T04:14:02;15.65;;;3.28;;
76786;SDS011;65739;51.482;5.702;2023-12-20T04:16:29;14.70;;;3.78;;
76786;SDS011;65739;51.482;5.702;2023-12-20T04:18:55;14.50;;;4.00;;
76786;SDS011;65739;51.482;5.702;2023-12-20T04:21:21;17.95;;;3.88;;
76786;SDS011;65739;51.482;5.702;2023-12-20T04:23:46;18.63;;;3.60;;
76786;SDS011;65739;51.482;5.702;2023-12-20T04:26:12;25.67;;;3.90;;
76786;SDS011;65739;51.482;5.702;2023-12-20T04:28:37;19.33;;;3.78;;
76786;SDS011;65739;51.482;5.702;2023-12-20T04:31:03;13.13;;;3.55;;
76786;SDS011;65739;51.482;5.702;2023-12-20T04:33:28;19.70;;;3.60;;
76786;SDS011;65739;51.482;5.702;2023-12-20T04:35:54;16.67;;;3.50;;
76786;SDS011;65739;51.482;5.702;2023-12-20T04:38:20;11.52;;;3.42;;
76786;SDS011;65739;51.482;5.702;2023-12-20T04:40:45;18.80;;;4.82;;
76786;SDS011;65739;51.482;5.702;2023-12-20T04:43:11;16.38;;;3.88;;
76786;SDS011;65739;51.482;5.702;2023-12-20T04:45:36;22.90;;;3.65;;
76786;SDS011;65739;51.482;5.702;2023-12-20T04:48:02;24.63;;;3.78;;
76786;SDS011;65739;51.482;5.702;2023-12-20T04:50:29;18.83;;;4.47;;
76786;SDS011;65739;51.482;5.702;2023-12-20T04:52:54;15.38;;;3.90;;
76786;SDS011;65739;51.482;5.702;2023-12-20T04:55:20;13.93;;;3.55;;
76786;SDS011;65739;51.482;5.702;2023-12-20T04:57:45;18.10;;;4.05;;
76786;SDS011;65739;51.482;5.702;2023-12-20T05:00:11;17.27;;;4.38;;
76786;SDS011;65739;51.482;5.702;2023-12-20T05:02:39;21.92;;;4.43;;
76786;SDS011;65739;51.482;5.702;2023-12-20T05:05:04;19.27;;;4.15;;
76786;SDS011;65739;51.482;5.702;2023-12-20T05:07:30;12.80;;;4.10;;
76786;SDS011;65739;51.482;5.702;2023-12-20T05:09:55;12.40;;;3.90;;
76786;SDS011;65739;51.482;5.702;2023-12-20T05:12:21;16.50;;;3.65;;
76786;SDS011;65739;51.482;5.702;2023-12-20T05:14:46;19.95;;;3.70;;
76786;SDS011;65739;51.482;5.702;2023-12-20T05:17:12;17.73;;;4.20;;
76786;SDS011;65739;51.482;5.702;2023-12-20T05:19:37;20.52;;;3.97;;
76786;SDS011;65739;51.482;5.702;2023-12-20T05:22:03;24.30;;;3.63;;
76786;SDS011;65739;51.482;5.702;2023-12-20T05:24:29;12.82;;;3.85;;
76786;SDS011;65739;51.482;5.702;2023-12-20T05:26:54;10.85;;;3.70;;
76786;SDS011;65739;51.482;5.702;2023-12-20T05:29:20;20.00;;;5.03;;
76786;SDS011;65739;51.482;5.702;2023-12-20T05:31:45;18.23;;;4.10;;
76786;SDS011;65739;51.482;5.702;2023-12-20T05:34:11;23.48;;;4.28;;
76786;SDS011;65739;51.482;5.702;2023-12-20T05:36:37;17.50;;;3.80;;
76786;SDS011;65739;51.482;5.702;2023-12-20T05:39:03;16.13;;;3.92;;
76786;SDS011;65739;51.482;5.702;2023-12-20T05:41:30;16.60;;;3.83;;
76786;SDS011;65739;51.482;5.702;2023-12-20T05:43:56;12.98;;;3.83;;
76786;SDS011;65739;51.482;5.702;2023-12-20T05:46:23;15.57;;;3.75;;
76786;SDS011;65739;51.482;5.702;2023-12-20T05:48:49;16.77;;;3.90;;
76786;SDS011;65739;51.482;5.702;2023-12-20T05:51:14;16.48;;;4.43;;
76786;SDS011;65739;51.482;5.702;2023-12-20T05:53:40;20.48;;;4.68;;
76786;SDS011;65739;51.482;5.702;2023-12-20T05:56:06;22.98;;;4.20;;
76786;SDS011;65739;51.482;5.702;2023-12-20T05:58:32;21.15;;;4.60;;
76786;SDS011;65739;51.482;5.702;2023-12-20T06:00:58;19.60;;;4.00;;
76786;SDS011;65739;51.482;5.702;2023-12-20T06:03:23;24.17;;;4.38;;
76786;SDS011;65739;51.482;5.702;2023-12-20T06:05:49;16.67;;;4.50;;
76786;SDS011;65739;51.482;5.702;2023-12-20T06:08:15;23.75;;;4.10;;
76786;SDS011;65739;51.482;5.702;2023-12-20T06:10:40;18.33;;;4.38;;
76786;SDS011;65739;51.482;5.702;2023-12-20T06:13:06;21.70;;;4.00;;
76786;SDS011;65739;51.482;5.702;2023-12-20T06:15:32;18.83;;;4.03;;
76786;SDS011;65739;51.482;5.702;2023-12-20T06:17:57;14.15;;;4.43;;
76786;SDS011;65739;51.482;5.702;2023-12-20T06:20:23;16.40;;;4.63;;
76786;SDS011;65739;51.482;5.702;2023-12-20T06:22:49;22.63;;;3.92;;
76786;SDS011;65739;51.482;5.702;2023-12-20T06:25:15;16.55;;;4.20;;
76786;SDS011;65739;51.482;5.702;2023-12-20T06:27:41;14.00;;;4.40;;
76786;SDS011;65739;51.482;5.702;2023-12-20T06:30:07;20.55;;;4.30;;
76786;SDS011;65739;51.482;5.702;2023-12-20T06:32:34;16.88;;;3.60;;
76786;SDS011;65739;51.482;5.702;2023-12-20T06:35:00;25.45;;;3.35;;
76786;SDS011;65739;51.482;5.702;2023-12-20T06:37:26;21.83;;;3.67;;
76786;SDS011;65739;51.482;5.702;2023-12-20T06:39:51;17.92;;;3.58;;
76786;SDS011;65739;51.482;5.702;2023-12-20T06:42:17;12.70;;;3.50;;
76786;SDS011;65739;51.482;5.702;2023-12-20T06:44:42;15.70;;;3.25;;
76786;SDS011;65739;51.482;5.702;2023-12-20T06:47:08;12.18;;;3.13;;
76786;SDS011;65739;51.482;5.702;2023-12-20T06:49:33;15.18;;;3.53;;
76786;SDS011;65739;51.482;5.702;2023-12-20T06:51:59;22.38;;;3.22;;
76786;SDS011;65739;51.482;5.702;2023-12-20T06:54:24;18.15;;;3.55;;
76786;SDS011;65739;51.482;5.702;2023-12-20T06:56:50;16.55;;;3.65;;
76786;SDS011;65739;51.482;5.702;2023-12-20T06:59:16;17.23;;;3.30;;
76786;SDS011;65739;51.482;5.702;2023-12-20T07:01:41;17.35;;;3.63;;
76786;SDS011;65739;51.482;5.702;2023-12-20T07:04:07;15.95;;;3.50;;
76786;SDS011;65739;51.482;5.702;2023-12-20T07:06:33;15.55;;;3.35;;
76786;SDS011;65739;51.482;5.702;2023-12-20T07:08:59;15.23;;;3.33;;
76786;SDS011;65739;51.482;5.702;2023-12-20T07:11:24;16.17;;;3.08;;
76786;SDS011;65739;51.482;5.702;2023-12-20T07:13:51;17.75;;;3.10;;
76786;SDS011;65739;51.482;5.702;2023-12-20T07:16:16;20.73;;;3.75;;
76786;SDS011;65739;51.482;5.702;2023-12-20T07:18:42;19.35;;;3.13;;
76786;SDS011;65739;51.482;5.702;2023-12-20T07:21:07;18.73;;;4.43;;
76786;SDS011;65739;51.482;5.702;2023-12-20T07:23:33;17.05;;;3.42;;
76786;SDS011;65739;51.482;5.702;2023-12-20T07:25:59;24.00;;;3.47;;
76786;SDS011;65739;51.482;5.702;2023-12-20T07:28:24;19.15;;;3.50;;
76786;SDS011;65739;51.482;5.702;2023-12-20T07:30:50;19.88;;;3.83;;
76786;SDS011;65739;51.482;5.702;2023-12-20T07:33:15;20.92;;;3.88;;
76786;SDS011;65739;51.482;5.702;2023-12-20T07:35:41;20.02;;;3.78;;
76786;SDS011;65739;51.482;5.702;2023-12-20T07:38:07;18.92;;;3.53;;
76786;SDS011;65739;51.482;5.702;2023-12-20T07:40:32;17.77;;;3.47;;
76786;SDS011;65739;51.482;5.702;2023-12-20T07:42:58;11.95;;;2.58;;
76786;SDS011;65739;51.482;5.702;2023-12-20T07:45:23;26.60;;;3.42;;
76786;SDS011;65739;51.482;5.702;2023-12-20T07:47:49;20.00;;;3.78;;
76786;SDS011;65739;51.482;5.702;2023-12-20T07:50:15;13.25;;;2.97;;
76786;SDS011;65739;51.482;5.702;2023-12-20T07:52:41;15.18;;;3.40;;
76786;SDS011;65739;51.482;5.702;2023-12-20T07:55:06;22.10;;;2.63;;
76786;SDS011;65739;51.482;5.702;2023-12-20T07:57:32;16.58;;;2.78;;
76786;SDS011;65739;51.482;5.702;2023-12-20T07:59:58;14.13;;;3.63;;
76786;SDS011;65739;51.482;5.702;2023-12-20T08:02:23;14.30;;;2.67;;
76786;SDS011;65739;51.482;5.702;2023-12-20T08:04:49;17.15;;;2.85;;
76786;SDS011;65739;51.482;5.702;2023-12-20T08:07:14;13.73;;;2.58;;
76786;SDS011;65739;51.482;5.702;2023-12-20T08:09:40;13.20;;;2.63;;
76786;SDS011;65739;51.482;5.702;2023-12-20T08:12:05;17.80;;;3.05;;
76786;SDS011;65739;51.482;5.702;2023-12-20T08:14:32;17.27;;;2.72;;
76786;SDS011;65739;51.482;5.702;2023-12-20T08:16:58;18.08;;;3.15;;
76786;SDS011;65739;51.482;5.702;2023-12-20T08:19:29;14.65;;;2.42;;
76786;SDS011;65739;51.482;5.702;2023-12-20T08:21:57;14.57;;;3.20;;
76786;SDS011;65739;51.482;5.702;2023-12-20T08:24:23;17.30;;;3.33;;
76786;SDS011;65739;51.482;5.702;2023-12-20T08:26:51;16.63;;;3.05;;
76786;SDS011;65739;51.482;5.702;2023-12-20T08:29:17;17.77;;;2.95;;
76786;SDS011;65739;51.482;5.702;2023-12-20T08:31:43;20.48;;;3.10;;
76786;SDS011;65739;51.482;5.702;2023-12-20T08:34:08;15.35;;;2.67;;
76786;SDS011;65739;51.482;5.702;2023-12-20T08:36:36;13.85;;;2.50;;
76786;SDS011;65739;51.482;5.702;2023-12-20T08:39:02;16.20;;;2.75;;
76786;SDS011;65739;51.482;5.702;2023-12-20T08:41:31;16.75;;;3.00;;
76786;SDS011;65739;51.482;5.702;2023-12-20T08:43:57;15.25;;;2.65;;
76786;SDS011;65739;51.482;5.702;2023-12-20T08:46:22;15.52;;;2.85;;
76786;SDS011;65739;51.482;5.702;2023-12-20T08:48:48;19.25;;;3.13;;
76786;SDS011;65739;51.482;5.702;2023-12-20T08:51:13;13.45;;;2.80;;
76786;SDS011;65739;51.482;5.702;2023-12-20T08:53:42;13.95;;;2.63;;
76786;SDS011;65739;51.482;5.702;2023-12-20T08:56:10;21.08;;;4.50;;
76786;SDS011;65739;51.482;5.702;2023-12-20T08:58:35;21.77;;;2.65;;
76786;SDS011;65739;51.482;5.702;2023-12-20T09:01:06;25.20;;;3.20;;
76786;SDS011;65739;51.482;5.702;2023-12-20T09:03:46;18.13;;;3.22;;
76786;SDS011;65739;51.482;5.702;2023-12-20T09:06:12;18.60;;;2.95;;
76786;SDS011;65739;51.482;5.702;2023-12-20T09:08:37;12.27;;;3.17;;
76786;SDS011;65739;51.482;5.702;2023-12-20T09:11:03;17.08;;;2.65;;
76786;SDS011;65739;51.482;5.702;2023-12-20T09:13:28;25.58;;;3.63;;
76786;SDS011;65739;51.482;5.702;2023-12-20T09:15:57;10.77;;;2.55;;
76786;SDS011;65739;51.482;5.702;2023-12-20T09:18:23;18.38;;;3.45;;
76786;SDS011;65739;51.482;5.702;2023-12-20T09:20:49;22.85;;;2.92;;
76786;SDS011;65739;51.482;5.702;2023-12-20T09:23:15;16.98;;;2.33;;
76786;SDS011;65739;51.482;5.702;2023-12-20T09:25:40;10.98;;;2.47;;
76786;SDS011;65739;51.482;5.702;2023-12-20T09:28:06;22.42;;;3.00;;
76786;SDS011;65739;51.482;5.702;2023-12-20T09:30:31;17.80;;;2.85;;
76786;SDS011;65739;51.482;5.702;2023-12-20T09:32:57;11.27;;;2.65;;
76786;SDS011;65739;51.482;5.702;2023-12-20T09:35:23;13.02;;;2.45;;
76786;SDS011;65739;51.482;5.702;2023-12-20T09:37:49;16.73;;;3.13;;
76786;SDS011;65739;51.482;5.702;2023-12-20T09:40:14;18.02;;;3.30;;
76786;SDS011;65739;51.482;5.702;2023-12-20T09:42:56;16.92;;;2.95;;
76786;SDS011;65739;51.482;5.702;2023-12-20T09:45:23;14.20;;;2.97;;
76786;SDS011;65739;51.482;5.702;2023-12-20T09:47:53;12.65;;;2.53;;
76786;SDS011;65739;51.482;5.702;2023-12-20T09:50:19;14.63;;;2.85;;
76786;SDS011;65739;51.482;5.702;2023-12-20T09:52:47;17.45;;;2.78;;
76786;SDS011;65739;51.482;5.702;2023-12-20T09:55:16;14.93;;;3.15;;
76786;SDS011;65739;51.482;5.702;2023-12-20T09:57:43;16.13;;;2.42;;
76786;SDS011;65739;51.482;5.702;2023-12-20T10:00:09;17.30;;;2.22;;
76786;SDS011;65739;51.482;5.702;2023-12-20T10:02:35;14.45;;;3.00;;
76786;SDS011;65739;51.482;5.702;2023-12-20T10:05:07;13.68;;;2.63;;
76786;SDS011;65739;51.482;5.702;2023-12-20T10:07:37;18.20;;;4.30;;
76786;SDS011;65739;51.482;5.702;2023-12-20T10:10:03;15.68;;;3.60;;
76786;SDS011;65739;51.482;5.702;2023-12-20T10:12:30;22.05;;;3.00;;
76786;SDS011;65739;51.482;5.702;2023-12-20T10:14:57;15.90;;;2.53;;
76786;SDS011;65739;51.482;5.702;2023-12-20T10:17:22;12.73;;;3.03;;
76786;SDS011;65739;51.482;5.702;2023-12-20T10:19:49;16.90;;;2.70;;
76786;SDS011;65739;51.482;5.702;2023-12-20T10:22:14;10.43;;;2.80;;
76786;SDS011;65739;51.482;5.702;2023-12-20T10:24:40;18.95;;;2.75;;
76786;SDS011;65739;51.482;5.702;2023-12-20T10:27:06;16.52;;;3.85;;
76786;SDS011;65739;51.482;5.702;2023-12-20T10:29:36;14.93;;;3.05;;
76786;SDS011;65739;51.482;5.702;2023-12-20T10:32:21;16.80;;;2.97;;
76786;SDS011;65739;51.482;5.702;2023-12-20T10:34:48;11.82;;;2.53;;
76786;SDS011;65739;51.482;5.702;2023-12-20T10:37:14;14.63;;;3.38;;
76786;SDS011;65739;51.482;5.702;2023-12-20T10:39:40;23.42;;;2.92;;
76786;SDS011;65739;51.482;5.702;2023-12-20T10:42:08;11.50;;;2.40;;
76786;SDS011;65739;51.482;5.702;2023-12-20T10:47:04;15.18;;;2.67;;
76786;SDS011;65739;51.482;5.702;2023-12-20T10:49:30;23.63;;;4.05;;
76786;SDS011;65739;51.482;5.702;2023-12-20T10:51:59;19.50;;;2.95;;
76786;SDS011;65739;51.482;5.702;2023-12-20T10:54:26;15.90;;;2.90;;
76786;SDS011;65739;51.482;5.702;2023-12-20T10:56:52;13.45;;;3.13;;
76786;SDS011;65739;51.482;5.702;2023-12-20T10:59:19;17.45;;;3.30;;
76786;SDS011;65739;51.482;5.702;2023-12-20T11:01:47;16.95;;;3.53;;
76786;SDS011;65739;51.482;5.702;2023-12-20T11:04:15;17.30;;;3.60;;
76786;SDS011;65739;51.482;5.702;2023-12-20T11:06:52;11.85;;;2.35;;
76786;SDS011;65739;51.482;5.702;2023-12-20T11:09:31;11.02;;;2.88;;
76786;SDS011;65739;51.482;5.702;2023-12-20T11:12:16;13.63;;;3.05;;
76786;SDS011;65739;51.482;5.702;2023-12-20T11:15:03;17.02;;;2.97;;
76786;SDS011;65739;51.482;5.702;2023-12-20T11:17:31;20.20;;;3.30;;
76786;SDS011;65739;51.482;5.702;2023-12-20T11:22:24;14.20;;;2.85;;
76786;SDS011;65739;51.482;5.702;2023-12-20T11:24:52;16.75;;;2.80;;
76786;SDS011;65739;51.482;5.702;2023-12-20T11:27:19;18.20;;;3.05;;
76786;SDS011;65739;51.482;5.702;2023-12-20T11:29:51;15.68;;;2.55;;
76786;SDS011;65739;51.482;5.702;2023-12-20T11:34:53;15.60;;;3.15;;
76786;SDS011;65739;51.482;5.702;2023-12-20T11:37:20;12.75;;;3.60;;
76786;SDS011;65739;51.482;5.702;2023-12-20T11:39:54;15.13;;;3.33;;
76786;SDS011;65739;51.482;5.702;2023-12-20T11:42:21;20.70;;;3.00;;
76786;SDS011;65739;51.482;5.702;2023-12-20T11:44:47;14.80;;;3.28;;
76786;SDS011;65739;51.482;5.702;2023-12-20T11:47:13;18.23;;;3.15;;
76786;SDS011;65739;51.482;5.702;2023-12-20T11:49:40;19.35;;;3.35;;
76786;SDS011;65739;51.482;5.702;2023-12-20T11:52:06;10.68;;;3.30;;
76786;SDS011;65739;51.482;5.702;2023-12-20T11:54:32;16.23;;;3.47;;
76786;SDS011;65739;51.482;5.702;2023-12-20T11:56:57;14.52;;;3.90;;
76786;SDS011;65739;51.482;5.702;2023-12-20T11:59:23;15.00;;;3.70;;
76786;SDS011;65739;51.482;5.702;2023-12-20T12:01:49;17.85;;;3.80;;
76786;SDS011;65739;51.482;5.702;2023-12-20T12:04:15;17.80;;;3.72;;
76786;SDS011;65739;51.482;5.702;2023-12-20T12:06:42;15.20;;;3.75;;
76786;SDS011;65739;51.482;5.702;2023-12-20T12:09:08;16.65;;;4.20;;
76786;SDS011;65739;51.482;5.702;2023-12-20T12:11:34;19.65;;;4.97;;
76786;SDS011;65739;51.482;5.702;2023-12-20T12:14:00;22.45;;;3.88;;
76786;SDS011;65739;51.482;5.702;2023-12-20T12:16:26;16.25;;;3.92;;
76786;SDS011;65739;51.482;5.702;2023-12-20T12:18:57;20.52;;;4.15;;
76786;SDS011;65739;51.482;5.702;2023-12-20T12:21:24;19.65;;;4.75;;
76786;SDS011;65739;51.482;5.702;2023-12-20T12:23:50;17.92;;;4.90;;
76786;SDS011;65739;51.482;5.702;2023-12-20T12:26:16;18.05;;;4.07;;
76786;SDS011;65739;51.482;5.702;2023-12-20T12:28:41;16.95;;;4.00;;
76786;SDS011;65739;51.482;5.702;2023-12-20T12:31:08;24.13;;;4.43;;
76786;SDS011;65739;51.482;5.702;2023-12-20T12:33:39;27.60;;;5.35;;
76786;SDS011;65739;51.482;5.702;2023-12-20T12:36:06;19.40;;;4.53;;
76786;SDS011;65739;51.482;5.702;2023-12-20T12:38:32;20.45;;;4.35;;
76786;SDS011;65739;51.482;5.702;2023-12-20T12:40:59;23.27;;;5.03;;
76786;SDS011;65739;51.482;5.702;2023-12-20T12:43:25;22.02;;;4.55;;
76786;SDS011;65739;51.482;5.702;2023-12-20T12:45:51;20.33;;;4.75;;
76786;SDS011;65739;51.482;5.702;2023-12-20T12:48:17;17.48;;;4.47;;
76786;SDS011;65739;51.482;5.702;2023-12-20T12:50:42;24.15;;;5.15;;
76786;SDS011;65739;51.482;5.702;2023-12-20T12:53:08;18.88;;;5.18;;
76786;SDS011;65739;51.482;5.702;2023-12-20T12:55:34;13.57;;;5.20;;
76786;SDS011;65739;51.482;5.702;2023-12-20T12:58:01;23.27;;;5.68;;
76786;SDS011;65739;51.482;5.702;2023-12-20T13:00:27;26.67;;;5.75;;
76786;SDS011;65739;51.482;5.702;2023-12-20T13:02:52;18.73;;;5.55;;
76786;SDS011;65739;51.482;5.702;2023-12-20T13:05:18;25.02;;;6.03;;
76786;SDS011;65739;51.482;5.702;2023-12-20T13:07:43;19.95;;;5.93;;
76786;SDS011;65739;51.482;5.702;2023-12-20T13:10:10;23.13;;;6.20;;
76786;SDS011;65739;51.482;5.702;2023-12-20T13:12:36;20.65;;;5.95;;
76786;SDS011;65739;51.482;5.702;2023-12-20T13:15:02;21.92;;;5.95;;
76786;SDS011;65739;51.482;5.702;2023-12-20T13:17:29;21.50;;;6.00;;
76786;SDS011;65739;51.482;5.702;2023-12-20T13:19:54;24.52;;;6.25;;
76786;SDS011;65739;51.482;5.702;2023-12-20T13:22:20;24.13;;;6.65;;
76786;SDS011;65739;51.482;5.702;2023-12-20T13:24:45;18.00;;;6.22;;
76786;SDS011;65739;51.482;5.702;2023-12-20T13:27:11;17.77;;;5.65;;
76786;SDS011;65739;51.482;5.702;2023-12-20T13:29:37;23.35;;;6.40;;
76786;SDS011;65739;51.482;5.702;2023-12-20T13:32:02;25.95;;;6.38;;
76786;SDS011;65739;51.482;5.702;2023-12-20T13:34:28;22.55;;;5.78;;
76786;SDS011;65739;51.482;5.702;2023-12-20T13:36:54;17.85;;;5.55;;
76786;SDS011;65739;51.482;5.702;2023-12-20T13:39:20;17.70;;;6.05;;
76786;SDS011;65739;51.482;5.702;2023-12-20T13:41:46;19.27;;;5.35;;
76786;SDS011;65739;51.482;5.702;2023-12-20T13:44:12;19.50;;;5.28;;
76786;SDS011;65739;51.482;5.702;2023-12-20T13:46:38;19.27;;;5.78;;
76786;SDS011;65739;51.482;5.702;2023-12-20T13:49:03;16.92;;;5.10;;
76786;SDS011;65739;51.482;5.702;2023-12-20T13:51:30;17.65;;;4.75;;
76786;SDS011;65739;51.482;5.702;2023-12-20T13:53:55;16.17;;;5.60;;
76786;SDS011;65739;51.482;5.702;2023-12-20T13:56:22;12.85;;;4.50;;
76786;SDS011;65739;51.482;5.702;2023-12-20T13:58:48;16.92;;;4.55;;
76786;SDS011;65739;51.482;5.702;2023-12-20T14:01:15;15.95;;;5.05;;
76786;SDS011;65739;51.482;5.702;2023-12-20T14:03:41;22.65;;;4.85;;
76786;SDS011;65739;51.482;5.702;2023-12-20T14:06:06;17.13;;;4.40;;
76786;SDS011;65739;51.482;5.702;2023-12-20T14:08:32;18.08;;;4.68;;
76786;SDS011;65739;51.482;5.702;2023-12-20T14:10:58;22.00;;;4.93;;
76786;SDS011;65739;51.482;5.702;2023-12-20T14:13:23;13.15;;;3.95;;
76786;SDS011;65739;51.482;5.702;2023-12-20T14:15:49;13.35;;;3.88;;
76786;SDS011;65739;51.482;5.702;2023-12-20T14:18:14;16.65;;;4.22;;
76786;SDS011;65739;51.482;5.702;2023-12-20T14:20:40;17.77;;;4.32;;
76786;SDS011;65739;51.482;5.702;2023-12-20T14:23:07;18.25;;;4.05;;
76786;SDS011;65739;51.482;5.702;2023-12-20T14:25:34;18.08;;;4.28;;
76786;SDS011;65739;51.482;5.702;2023-12-20T14:28:02;13.90;;;4.15;;
76786;SDS011;65739;51.482;5.702;2023-12-20T14:30:28;15.77;;;3.97;;
76786;SDS011;65739;51.482;5.702;2023-12-20T14:32:54;15.55;;;4.13;;
76786;SDS011;65739;51.482;5.702;2023-12-20T14:35:19;15.68;;;4.00;;
76786;SDS011;65739;51.482;5.702;2023-12-20T14:37:45;17.35;;;3.90;;